地図

経路データ

SID SEASON NUMBER BASIN SUBBASIN NAME ISO_TIME NATURE LAT LON WMO_WIND WMO_PRES WMO_AGENCY TRACK_TYPE DIST2LAND LANDFALL IFLAG USA_AGENCY USA_ATCF_ID USA_LAT USA_LON USA_RECORD USA_STATUS USA_WIND USA_PRES USA_SSHS USA_R34_NE USA_R34_SE USA_R34_SW USA_R34_NW USA_R50_NE USA_R50_SE USA_R50_SW USA_R50_NW USA_R64_NE USA_R64_SE USA_R64_SW USA_R64_NW USA_POCI USA_ROCI USA_RMW USA_EYE TOKYO_LAT TOKYO_LON TOKYO_GRADE TOKYO_WIND TOKYO_PRES TOKYO_R50_DIR TOKYO_R50_LONG TOKYO_R50_SHORT TOKYO_R30_DIR TOKYO_R30_LONG TOKYO_R30_SHORT TOKYO_LAND CMA_LAT CMA_LON CMA_CAT CMA_WIND CMA_PRES HKO_LAT HKO_LON HKO_CAT HKO_WIND HKO_PRES NEWDELHI_LAT NEWDELHI_LON NEWDELHI_GRADE NEWDELHI_WIND NEWDELHI_PRES NEWDELHI_CI NEWDELHI_DP NEWDELHI_POCI REUNION_LAT REUNION_LON REUNION_TYPE REUNION_WIND REUNION_PRES REUNION_TNUM REUNION_CI REUNION_RMW REUNION_R34_NE REUNION_R34_SE REUNION_R34_SW REUNION_R34_NW REUNION_R50_NE REUNION_R50_SE REUNION_R50_SW REUNION_R50_NW REUNION_R64_NE REUNION_R64_SE REUNION_R64_SW REUNION_R64_NW BOM_LAT BOM_LON BOM_TYPE BOM_WIND BOM_PRES BOM_TNUM BOM_CI BOM_RMW BOM_R34_NE BOM_R34_SE BOM_R34_SW BOM_R34_NW BOM_R50_NE BOM_R50_SE BOM_R50_SW BOM_R50_NW BOM_R64_NE BOM_R64_SE BOM_R64_SW BOM_R64_NW BOM_ROCI BOM_POCI BOM_EYE BOM_POS_METHOD BOM_PRES_METHOD NADI_LAT NADI_LON NADI_CAT NADI_WIND NADI_PRES WELLINGTON_LAT WELLINGTON_LON WELLINGTON_WIND WELLINGTON_PRES DS824_LAT DS824_LON DS824_STAGE DS824_WIND DS824_PRES TD9636_LAT TD9636_LON TD9636_STAGE TD9636_WIND TD9636_PRES TD9635_LAT TD9635_LON TD9635_WIND TD9635_PRES TD9635_ROCI NEUMANN_LAT NEUMANN_LON NEUMANN_CLASS NEUMANN_WIND NEUMANN_PRES MLC_LAT MLC_LON MLC_CLASS MLC_WIND MLC_PRES USA_GUST BOM_GUST BOM_GUST_PER REUNION_GUST REUNION_GUST_PER USA_SEAHGT USA_SEARAD_NE USA_SEARAD_SE USA_SEARAD_SW USA_SEARAD_NW STORM_SPEED STORM_DIR
1926029S17056 1926 9 SI MM NOT_NAMED 1926-01-29 06:00:00 NR -16.6000 55.6000 reunion main 439 439 _____O________ -1 -16.6000 55.6000 99 9.90000 10 251
1926029S17056 1926 9 SI MM NOT_NAMED 1926-01-29 09:00:00 NR -16.7668 55.0990 main 447 447 _____P________ -1 -16.7668 55.0990 99 10 251
1926029S17056 1926 9 SI MM NOT_NAMED 1926-01-29 12:00:00 NR -16.9324 54.5997 main 464 428 _____P________ -1 -16.9324 54.5997 99 10 251
1926029S17056 1926 9 SI MM NOT_NAMED 1926-01-29 15:00:00 NR -17.0967 54.1051 main 428 409 _____P________ -1 -17.0967 54.1051 99 6 270
1926029S17056 1926 9 SI MM NOT_NAMED 1926-01-29 18:00:00 NR -16.9278 54.0144 main 409 375 _____P____O___ -1 -17.2598 53.6179 99 -15.6000 55.6000 4 5 276
1926029S17056 1926 9 SI MM NOT_NAMED 1926-01-29 21:00:00 NR -17.0444 53.6057 main 375 341 _____P____P___ -1 -17.4216 53.1410 99 -16.2902 54.5350 4 10 248
1926029S17056 1926 9 SI MM NOT_NAMED 1926-01-30 00:00:00 NR -17.3035 53.0392 main 331 300 _____P____P___ -1 -17.5822 52.6772 99 -16.9319 53.5219 4 13 243
1926029S17056 1926 9 SI MM NOT_NAMED 1926-01-30 03:00:00 NR -17.6120 52.4259 main 290 254 _____P____P___ -1 -17.7416 52.2293 99 -17.4824 52.6226 4 13 242
1926029S17056 1926 9 SI MM NOT_NAMED 1926-01-30 06:00:00 TS -17.9000 51.8556 reunion main 254 205 _____O___OO___ -1 -17.9000 51.8000 99 9.90000 -17.9000 51.9000 TC 65 -17.9000 51.9000 4 11 243
1926029S17056 1926 9 SI MM NOT_NAMED 1926-01-30 09:00:00 TS -18.0980 51.4230 main 205 178 _____P___PP___ -1 -18.0576 51.3914 99 -18.0527 51.5452 TC 65 -18.1611 51.3934 4 8 245
1926029S17056 1926 9 SI MM NOT_NAMED 1926-01-30 12:00:00 TS -18.2451 51.0722 main 178 148 _____P___OP___ -1 -18.2152 51.0028 99 -18.2000 51.2000 TC 65 -18.3089 51.0459 4 7 246
1926029S17056 1926 9 SI MM NOT_NAMED 1926-01-30 15:00:00 TS -18.3727 50.7576 main 149 110 _____P___PP___ -1 -18.3734 50.6324 99 -18.3423 50.8648 TC 65 -18.4024 50.7756 4 7 247
1926029S17056 1926 9 SI MM NOT_NAMED 1926-01-30 18:00:00 TS -18.5110 50.4262 main 110 81 _____P___OO___ -1 -18.5330 50.2787 99 -18.5000 50.5000 TC 65 -18.5000 50.5000 4 8 247
1926029S17056 1926 9 SI MM NOT_NAMED 1926-01-30 21:00:00 TS -18.6667 50.0217 main 81 43 _____P___PP___ -1 -18.6948 49.9402 99 -18.6925 50.0575 TC 65 -18.6129 50.0673 4 8 247
1926029S17056 1926 9 SI MM NOT_NAMED 1926-01-31 00:00:00 TS -18.8367 49.6113 main 43 10 _____P___OP___ -1 -18.8594 49.6153 99 -18.9000 49.6000 TC 65 -18.7506 49.6187 4 8 246
1926029S17056 1926 9 SI MM NOT_NAMED 1926-01-31 03:00:00 TS -19.0052 49.2193 main 10 0 _____P___PP___ -1 -19.0276 49.3024 99 -19.0250 49.1696 TC 65 -18.9629 49.1859 4 8 239
1926029S17056 1926 9 SI MM NOT_NAMED 1926-01-31 06:00:00 TS -19.2667 48.8667 reunion main 0 0 _____O___OO___ -1 -19.2000 49.0000 99 9.90000 -19.3000 48.8000 TC 65 -19.3000 48.8000 4 10 219
1926029S17056 1926 9 SI MM NOT_NAMED 1926-01-31 09:00:00 TS -19.7589 48.5697 main 0 0 _____P___PP___ -1 -19.3627 48.6719 99 -19.9399 48.5275 TC 65 -19.9743 48.5096 4 12 206
1926029S17056 1926 9 SI MM NOT_NAMED 1926-01-31 12:00:00 TS -20.3257 48.3062 main 0 0 _____P___OP___ -1 -19.5278 48.3536 99 -20.7000 48.3000 TC 65 -20.7492 48.2651 4 12 204
1926029S17056 1926 9 SI MM NOT_NAMED 1926-01-31 15:00:00 TS -20.8682 48.0479 main 0 0 _____P___PP___ -1 -19.6978 48.0478 99 -21.4574 48.0580 TC 65 -21.4495 48.0380 4 10 208
1926029S17056 1926 9 SI MM NOT_NAMED 1926-01-31 18:00:00 TS -21.2250 47.7857 main 0 0 _____P___OO___ -1 -19.8749 47.7571 99 -21.9000 47.8000 TC 65 -21.9000 47.8000 4 6 239
1926029S17056 1926 9 SI MM NOT_NAMED 1926-01-31 21:00:00 TS -21.1742 47.4952 main 0 0 _____P___PP___ -1 -20.0613 47.4842 99 -21.6775 47.5067 TC 65 -21.7838 47.4947 4 6 296
1926029S17056 1926 9 SI MM NOT_NAMED 1926-02-01 00:00:00 TS -20.9599 47.2041 main 0 0 _____P___OP___ -1 -20.2594 47.2320 99 -21.2000 47.2000 TC 65 -21.4202 47.1804 4 7 307
1926029S17056 1926 9 SI MM NOT_NAMED 1926-02-01 03:00:00 TS -20.7785 46.9238 main 0 0 _____P___PP___ -1 -20.4715 47.0030 99 -20.8675 46.8923 TC 65 -20.9964 46.8762 4 6 297
1926029S17056 1926 9 SI MM NOT_NAMED 1926-02-01 06:00:00 TS -20.7000 46.6667 reunion main 0 0 _____O___OO___ -1 -20.7000 46.8000 99 9.90000 -20.7000 46.6000 TC 65 -20.7000 46.6000 4 5 262
1926029S17056 1926 9 SI MM NOT_NAMED 1926-02-01 09:00:00 TS -20.8440 46.4173 main 0 0 _____P___PP___ -1 -20.9307 46.5839 99 -20.8175 46.3278 TC 65 -20.7837 46.3402 4 6 228
1926029S17056 1926 9 SI MM NOT_NAMED 1926-02-01 12:00:00 TS -21.0987 46.2006 main 0 0 _____P___OP___ -1 -21.1761 46.3900 99 -21.1000 46.1000 TC 65 -21.0199 46.1119 4 7 214
1926029S17056 1926 9 SI MM NOT_NAMED 1926-02-01 15:00:00 TS -21.3894 46.0207 main 0 0 _____P___PP___ -1 -21.4369 46.2219 99 -21.3850 45.9126 TC 65 -21.3462 45.9275 4 7 205
1926029S17056 1926 9 SI MM NOT_NAMED 1926-02-01 18:00:00 TS -21.7046 45.8945 main 0 0 _____P___OO___ -1 -21.7139 46.0835 99 -21.7000 45.8000 TC 65 -21.7000 45.8000 4 6 197
1926029S17056 1926 9 SI MM NOT_NAMED 1926-02-01 21:00:00 TS -21.9883 45.8259 main 0 0 _____P___PP___ -1 -22.0080 45.9782 99 -22.0000 45.7774 TC 65 -21.9570 45.7221 4 6 187
1926029S17056 1926 9 SI MM NOT_NAMED 1926-02-02 00:00:00 TS -22.2840 45.8042 main 0 0 _____P___OP___ -1 -22.3198 45.9100 99 -22.3000 45.8000 TC 65 -22.2323 45.7026 4 6 0
1926029S17056 1926 9 SI MM NOT_NAMED 1926-02-02 03:00:00 TS -22.5872 45.7998 main 0 0 _____P___PP___ -1 -22.6502 45.8826 99 -22.5700 45.7851 TC 65 -22.5414 45.7318 4 7 0
1926029S17056 1926 9 SI MM NOT_NAMED 1926-02-02 06:00:00 TS -22.9333 45.8333 reunion main 0 0 _____O___OO___ -1 -23.0000 45.9000 99 9.90000 -22.9000 45.8000 TC 65 -22.9000 45.8000 4 8 172
1926029S17056 1926 9 SI MM NOT_NAMED 1926-02-02 09:00:00 TS -23.3781 45.9106 main 0 0 _____P___PP___ -1 -23.4160 45.9818 99 -23.3775 45.8775 TC 65 -23.3409 45.8727 4 10 169
1926029S17056 1926 9 SI MM NOT_NAMED 1926-02-02 12:00:00 TS -23.8623 46.0324 main 0 0 _____P___OP___ -1 -23.8594 46.1147 99 -23.9000 46.0000 TC 65 -23.8274 45.9824 4 10 165
1926029S17056 1926 9 SI MM NOT_NAMED 1926-02-02 15:00:00 TS -24.3354 46.1826 main 0 0 _____P___PP___ -1 -24.3159 46.2866 99 -24.3650 46.1351 TC 65 -24.3252 46.1260 4 10 162
1926029S17056 1926 9 SI MM NOT_NAMED 1926-02-02 18:00:00 TS -24.7905 46.3619 main 0 0 _____P___OO___ -1 -24.7714 46.4856 99 -24.8000 46.3000 TC 65 -24.8000 46.3000 4 10 159
1926029S17056 1926 9 SI MM NOT_NAMED 1926-02-02 21:00:00 TS -25.2173 46.5616 main 0 0 _____P___PP___ -1 -25.2116 46.6992 99 -25.2150 46.4851 TC 65 -25.2255 46.5005 4 9 155
1926029S17056 1926 9 SI MM NOT_NAMED 1926-02-03 00:00:00 TS -25.6113 46.7924 main 44 44 _____P___OP___ -1 -25.6224 46.9148 99 -25.6000 46.7000 TC 65 -25.6078 46.7216 4 9 151
1926029S17056 1926 9 SI MM NOT_NAMED 1926-02-03 03:00:00 TS -25.9747 47.0345 main 91 91 _____P___PP___ -1 -25.9899 47.1195 99 -25.9576 46.9422 TC 65 -25.9613 46.9569 4 8 148
1926029S17056 1926 9 SI MM NOT_NAMED 1926-02-03 06:00:00 TS -26.3000 47.2667 reunion main 132 132 _____O___OO___ -1 -26.3000 47.3000 99 9.90000 -26.3000 47.2000 TC 65 -26.3000 47.2000 4 7 147
1926029S17056 1926 9 SI MM NOT_NAMED 1926-02-03 09:00:00 NR -26.5427 47.4460 main 157 157 _____P________ -1 -26.5427 47.4460 99 TC 4 5 148
1926029S17056 1926 9 SI MM NOT_NAMED 1926-02-03 12:00:00 NR -26.7232 47.5589 main 185 185 _____P________ -1 -26.7232 47.5589 99 4 4 150
1926029S17056 1926 9 SI MM NOT_NAMED 1926-02-03 15:00:00 NR -26.8505 47.6432 main 206 206 _____P________ -1 -26.8505 47.6432 99 4 2 148
1926029S17056 1926 9 SI MM NOT_NAMED 1926-02-03 18:00:00 NR -26.9335 47.7035 main 210 210 _____P________ -1 -26.9335 47.7035 99 2 146
1926029S17056 1926 9 SI MM NOT_NAMED 1926-02-03 21:00:00 NR -26.9811 47.7445 main 220 220 _____P________ -1 -26.9811 47.7445 99 1 141
1926029S17056 1926 9 SI MM NOT_NAMED 1926-02-04 00:00:00 NR -27.0022 47.7711 main 224 224 _____P________ -1 -27.0022 47.7711 99 0 128
1926029S17056 1926 9 SI MM NOT_NAMED 1926-02-04 03:00:00 NR -27.0055 47.7879 main 224 224 _____P________ -1 -27.0055 47.7879 99 0 0
1926029S17056 1926 9 SI MM NOT_NAMED 1926-02-04 06:00:00 NR -27.0000 47.8000 reunion main 224 _____O________ -1 -27.0000 47.8000 99 9.90000 0 0

IBTrACS Databaseについて

本データベースは、米国NOAAが公開する1842年以降の世界の熱帯低気圧のベストトラックデータアーカイブInternational Best Track Archive for Climate Stewardship (IBTrACS)を、ウェブで閲覧しやすい形式に変換したものです。

最終更新日:2021-10-25